createdAt,value
2022-11-26T00:03:53.384Z,75.62
2022-11-26T00:09:19.479Z,75.74
2022-11-26T00:14:41.207Z,75.92
2022-11-26T00:20:03.539Z,75.26
2022-11-26T00:25:28.481Z,75.36
2022-11-26T00:30:50.409Z,75.61
2022-11-26T00:36:26.889Z,75.90
2022-11-26T00:41:51.010Z,76.17
2022-11-26T00:47:12.661Z,75.98
2022-11-26T00:52:35.238Z,76.38
2022-11-26T00:57:57.919Z,76.41
2022-11-26T01:03:20.248Z,76.71
2022-11-26T01:08:42.681Z,76.50
2022-11-26T01:14:06.454Z,76.38
2022-11-26T01:19:28.645Z,76.79
2022-11-26T01:24:50.975Z,76.64
2022-11-26T01:30:22.038Z,76.36
2022-11-26T01:35:43.867Z,76.34
2022-11-26T01:41:31.486Z,76.30
2022-11-26T01:46:53.719Z,76.57
2022-11-26T01:52:24.478Z,76.53
2022-11-26T01:57:46.309Z,76.58
2022-11-26T02:03:08.435Z,76.93
2022-11-26T02:08:31.772Z,76.96
2022-11-26T02:13:56.912Z,77.25
2022-11-26T02:19:57.175Z,77.01
2022-11-26T02:25:34.459Z,76.81
2022-11-26T02:31:06.230Z,76.78
2022-11-26T02:36:32.699Z,76.87
2022-11-26T02:42:02.288Z,76.78
2022-11-26T02:47:25.289Z,77.24
2022-11-26T02:52:48.992Z,77.38
2022-11-26T02:58:11.423Z,77.39
2022-11-26T03:03:37.774Z,77.37
2022-11-26T03:08:59.897Z,77.21
2022-11-26T03:14:21.527Z,77.45
2022-11-26T03:19:43.355Z,77.73
2022-11-26T03:25:06.287Z,77.84
2022-11-26T03:30:28.202Z,77.83
2022-11-26T03:35:50.479Z,77.73
2022-11-26T03:41:12.386Z,77.69
2022-11-26T03:46:35.289Z,77.94
2022-11-26T03:51:57.141Z,78.00
2022-11-26T03:57:20.348Z,78.21
2022-11-26T04:02:42.490Z,78.04
2022-11-26T04:08:04.472Z,78.00
2022-11-26T04:13:26.470Z,78.23
2022-11-26T04:18:48.491Z,78.16
2022-11-26T04:24:10.224Z,78.03
2022-11-26T04:29:32.150Z,77.63
2022-11-26T04:34:54.051Z,77.72
2022-11-26T04:40:16.113Z,78.11
2022-11-26T04:45:38.388Z,78.12
2022-11-26T04:51:00.270Z,77.33
2022-11-26T04:56:22.467Z,77.63
2022-11-26T05:01:44.657Z,76.86
2022-11-26T05:07:06.769Z,77.23
2022-11-26T05:12:28.689Z,77.36
2022-11-26T05:17:50.619Z,77.55
2022-11-26T05:23:12.482Z,77.32
2022-11-26T05:28:34.679Z,77.39
2022-11-26T05:33:56.306Z,77.28
2022-11-26T05:39:18.135Z,77.31
2022-11-26T05:44:40.024Z,76.91
2022-11-26T05:50:02.716Z,76.84
2022-11-26T05:55:25.227Z,76.70
2022-11-26T06:00:47.359Z,76.66
2022-11-26T06:06:09.897Z,76.92
2022-11-26T06:11:31.528Z,77.10
2022-11-26T06:16:53.604Z,77.15
2022-11-26T06:22:15.744Z,77.52
2022-11-26T06:27:38.008Z,77.46
2022-11-26T06:32:59.601Z,77.24
2022-11-26T06:38:21.832Z,77.27
2022-11-26T06:43:43.997Z,77.29
2022-11-26T06:49:06.532Z,77.16
2022-11-26T06:54:28.456Z,77.25
2022-11-26T06:59:51.591Z,77.32
2022-11-26T07:05:13.625Z,77.07
2022-11-26T07:10:35.649Z,77.13
2022-11-26T07:16:03.016Z,77.21
2022-11-26T07:21:25.876Z,77.48
2022-11-26T07:26:48.034Z,77.38
2022-11-26T07:32:10.793Z,77.92
2022-11-26T07:37:33.607Z,77.69
2022-11-26T07:42:55.454Z,77.57
2022-11-26T07:48:19.392Z,77.41
2022-11-26T07:53:41.522Z,77.40
2022-11-26T07:59:04.152Z,77.75
2022-11-26T08:04:25.904Z,77.55
2022-11-26T08:09:48.114Z,77.96
2022-11-26T08:15:10.746Z,77.54
2022-11-26T08:20:32.673Z,77.58
2022-11-26T08:26:14.876Z,77.81
2022-11-26T08:31:39.912Z,78.09
2022-11-26T08:37:04.050Z,77.89
2022-11-26T08:42:25.934Z,78.00
2022-11-26T08:47:47.808Z,78.08
2022-11-26T08:53:09.539Z,78.35
2022-11-26T08:58:37.088Z,78.38
2022-11-26T09:04:00.322Z,78.73
2022-11-26T09:09:22.180Z,78.74
2022-11-26T09:14:44.206Z,78.96
2022-11-26T09:20:07.217Z,78.90
2022-11-26T09:25:28.840Z,79.25
2022-11-26T09:30:50.774Z,79.19
2022-11-26T09:36:15.134Z,78.94
2022-11-26T09:42:09.471Z,79.01
2022-11-26T09:47:40.815Z,78.91
2022-11-26T09:53:10.990Z,79.17
2022-11-26T09:58:57.840Z,79.24
2022-11-26T10:04:27.485Z,79.32
2022-11-26T10:10:24.634Z,79.01
2022-11-26T10:15:52.508Z,79.20
2022-11-26T10:21:32.481Z,79.32
2022-11-26T10:27:10.087Z,78.92
2022-11-26T10:32:36.442Z,79.19
2022-11-26T10:37:58.292Z,79.29
2022-11-26T10:43:23.708Z,79.20
2022-11-26T10:48:45.739Z,78.97
2022-11-26T10:54:24.166Z,79.03
2022-11-26T10:59:53.595Z,78.85
2022-11-26T11:05:20.497Z,78.78
2022-11-26T11:10:56.910Z,78.86
2022-11-26T11:16:26.641Z,79.02
2022-11-26T11:21:48.793Z,78.69
2022-11-26T11:27:25.569Z,78.90
2022-11-26T11:32:47.305Z,78.86
2022-11-26T11:38:24.072Z,78.58
2022-11-26T11:43:46.372Z,78.73
2022-11-26T11:49:47.963Z,78.77
2022-11-26T11:55:21.727Z,78.63
2022-11-26T12:00:53.829Z,78.52
2022-11-26T12:06:40.537Z,78.47
2022-11-26T12:12:21.999Z,78.34
2022-11-26T12:17:50.554Z,78.55
2022-11-26T12:23:34.432Z,78.11
2022-11-26T12:29:16.682Z,78.02
2022-11-26T12:34:45.080Z,77.69
2022-11-26T12:40:23.768Z,77.69
2022-11-26T12:45:59.237Z,77.54
2022-11-26T12:51:50.477Z,77.83
2022-11-26T12:57:25.657Z,77.51
2022-11-26T13:02:49.556Z,77.40
2022-11-26T13:08:23.295Z,77.48
2022-11-26T13:13:58.543Z,77.21
2022-11-26T13:19:33.858Z,77.26
2022-11-26T13:25:33.675Z,77.11
2022-11-26T13:31:23.667Z,77.06
2022-11-26T13:37:03.963Z,76.99
2022-11-26T13:42:25.529Z,77.04
2022-11-26T13:48:02.707Z,77.06
2022-11-26T13:53:32.343Z,77.03
2022-11-26T13:58:55.296Z,77.06
2022-11-26T14:04:23.383Z,76.91
2022-11-26T14:09:48.449Z,76.99
2022-11-26T14:15:58.478Z,76.93
2022-11-26T14:21:21.644Z,77.03
2022-11-26T14:26:43.950Z,77.09
2022-11-26T14:32:11.832Z,77.12
2022-11-26T14:37:33.630Z,76.89
2022-11-26T14:43:19.814Z,77.03
2022-11-26T14:48:44.485Z,76.97
2022-11-26T14:54:08.117Z,76.97
2022-11-26T14:59:30.750Z,76.88
2022-11-26T15:05:03.918Z,76.80
2022-11-26T15:10:26.351Z,76.87
2022-11-26T15:16:27.963Z,76.74
2022-11-26T15:21:49.858Z,76.86
2022-11-26T15:27:37.344Z,77.04
2022-11-26T15:33:03.182Z,76.95
2022-11-26T15:38:27.263Z,76.95
2022-11-26T15:43:50.812Z,76.81
2022-11-26T15:49:31.878Z,77.32
2022-11-26T15:55:12.385Z,77.38
2022-11-26T16:00:38.855Z,77.85
2022-11-26T16:06:01.611Z,77.94
2022-11-26T16:11:23.831Z,78.01
2022-11-26T16:16:45.992Z,77.87
2022-11-26T16:22:16.316Z,77.99
2022-11-26T16:27:38.233Z,77.73
2022-11-26T16:33:00.344Z,77.74
2022-11-26T16:38:25.477Z,77.87
2022-11-26T16:43:48.606Z,78.07
2022-11-26T16:49:11.031Z,77.94
2022-11-26T16:54:32.837Z,77.75
2022-11-26T16:59:58.935Z,77.34
2022-11-26T17:05:21.290Z,77.10
2022-11-26T17:10:42.869Z,76.76
2022-11-26T17:16:06.255Z,76.07
2022-11-26T17:21:27.730Z,76.39
2022-11-26T17:26:49.513Z,76.10
2022-11-26T17:32:12.743Z,76.07
2022-11-26T17:37:34.578Z,76.27
2022-11-26T17:42:56.651Z,76.37
2022-11-26T17:48:18.595Z,76.11
2022-11-26T17:53:41.323Z,75.96
2022-11-26T17:59:03.345Z,76.00
2022-11-26T18:04:25.418Z,76.15
2022-11-26T18:09:47.455Z,76.09
2022-11-26T18:15:17.369Z,75.83
2022-11-26T18:20:39.336Z,75.86
2022-11-26T18:26:01.065Z,75.62
2022-11-26T18:31:23.519Z,75.62
2022-11-26T18:36:49.365Z,75.49
2022-11-26T18:47:55.866Z,75.58
2022-11-26T18:53:17.921Z,75.37
2022-11-26T18:58:39.977Z,75.29
2022-11-26T19:04:01.722Z,75.15
2022-11-26T19:09:24.118Z,75.53
2022-11-26T19:14:46.223Z,75.50
2022-11-26T19:20:08.548Z,74.80
2022-11-26T19:25:31.728Z,75.18
2022-11-26T19:31:08.830Z,74.90
2022-11-26T19:36:30.902Z,75.09
2022-11-26T19:41:52.978Z,75.31
2022-11-26T19:47:14.772Z,75.18
2022-11-26T19:52:36.882Z,75.49
2022-11-26T19:57:58.645Z,75.31
2022-11-26T20:03:20.889Z,75.26
2022-11-26T20:08:43.204Z,75.46
2022-11-26T20:14:05.707Z,75.45
2022-11-26T20:19:27.813Z,75.42
2022-11-26T20:24:49.547Z,75.56
2022-11-26T20:30:12.122Z,75.22
2022-11-26T20:35:34.313Z,74.80
2022-11-26T20:40:55.831Z,75.44
2022-11-26T20:46:18.033Z,75.28
2022-11-26T20:51:40.259Z,75.82
2022-11-26T20:57:02.292Z,75.80
2022-11-26T21:02:25.433Z,75.93
2022-11-26T21:07:47.487Z,76.48
2022-11-26T21:13:11.064Z,76.35
2022-11-26T21:18:33.641Z,76.57
2022-11-26T21:23:55.235Z,76.17
2022-11-26T21:29:17.283Z,75.90
2022-11-26T21:34:39.061Z,75.74
2022-11-26T21:40:01.071Z,75.70
2022-11-26T21:45:24.011Z,76.06
2022-11-26T21:50:45.889Z,75.73
2022-11-26T21:56:09.897Z,75.20
2022-11-26T22:01:36.932Z,74.90
2022-11-26T22:07:00.115Z,74.84
2022-11-26T22:12:21.866Z,74.72
2022-11-26T22:17:43.714Z,74.93
2022-11-26T22:23:06.374Z,75.07
2022-11-26T22:28:30.313Z,74.80
2022-11-26T22:34:10.298Z,75.08
2022-11-26T22:39:32.441Z,74.75
2022-11-26T22:44:54.083Z,74.30
2022-11-26T22:50:16.319Z,74.37
2022-11-26T22:55:38.532Z,73.98
2022-11-26T23:01:04.850Z,74.70
2022-11-26T23:06:28.766Z,74.71
2022-11-26T23:11:51.558Z,74.35
2022-11-26T23:17:13.356Z,74.36
2022-11-26T23:22:35.039Z,74.22
2022-11-26T23:27:56.869Z,73.92
2022-11-26T23:33:18.697Z,73.77
2022-11-26T23:38:41.129Z,73.92
2022-11-26T23:44:03.863Z,73.48
2022-11-26T23:49:25.721Z,73.50
2022-11-26T23:54:47.920Z,73.49
